createdAt,value
2023-04-28T00:02:02.550Z,15.62
2023-04-28T00:04:29.772Z,15.61
2023-04-28T00:06:57.138Z,15.60
2023-04-28T00:09:24.167Z,15.60
2023-04-28T00:11:51.111Z,15.58
2023-04-28T00:14:18.198Z,15.59
2023-04-28T00:16:45.383Z,15.58
2023-04-28T00:19:12.475Z,15.57
2023-04-28T00:21:39.733Z,15.57
2023-04-28T00:24:07.331Z,15.55
2023-04-28T00:26:34.496Z,15.55
2023-04-28T00:29:01.418Z,15.53
2023-04-28T00:31:28.363Z,15.52
2023-04-28T00:33:55.365Z,15.52
2023-04-28T00:36:22.367Z,15.51
2023-04-28T00:38:49.269Z,15.50
2023-04-28T00:41:16.182Z,15.49
2023-04-28T00:43:50.381Z,15.47
2023-04-28T00:46:25.578Z,15.47
2023-04-28T00:48:53.685Z,15.45
2023-04-28T00:51:21.508Z,15.44
2023-04-28T00:53:48.735Z,15.44
2023-04-28T00:56:15.932Z,15.43
2023-04-28T00:58:43.321Z,15.42
2023-04-28T01:01:11.174Z,15.40
2023-04-28T01:03:40.608Z,15.40
2023-04-28T01:06:09.739Z,15.38
2023-04-28T01:08:39.223Z,15.38
2023-04-28T01:11:14.048Z,15.36
2023-04-28T01:14:01.362Z,15.34
2023-04-28T01:16:32.968Z,15.34
2023-04-28T01:19:00.971Z,15.32
2023-04-28T01:21:32.519Z,15.32
2023-04-28T01:24:06.618Z,15.30
2023-04-28T01:26:33.621Z,15.30
2023-04-28T01:29:01.687Z,15.29
2023-04-28T01:31:31.077Z,15.29
2023-04-28T01:33:58.727Z,15.28
2023-04-28T01:36:28.410Z,15.26
2023-04-28T01:38:55.808Z,15.26
2023-04-28T01:41:22.848Z,15.25
2023-04-28T01:43:49.823Z,15.25
2023-04-28T01:46:17.087Z,15.23
2023-04-28T01:48:44.140Z,15.22
2023-04-28T01:51:12.886Z,15.20
2023-04-28T01:53:40.066Z,15.19
2023-04-28T01:56:07.012Z,15.19
2023-04-28T01:58:35.220Z,15.18
2023-04-28T02:01:02.143Z,15.18
2023-04-28T02:03:29.466Z,15.16
2023-04-28T02:05:56.718Z,15.15
2023-04-28T02:08:23.859Z,15.14
2023-04-28T02:10:52.242Z,15.15
2023-04-28T02:13:19.146Z,15.13
2023-04-28T02:15:46.436Z,15.11
2023-04-28T02:18:13.545Z,15.11
2023-04-28T02:20:40.956Z,15.11
2023-04-28T02:23:08.918Z,15.09
2023-04-28T02:25:35.935Z,15.09
2023-04-28T02:28:04.149Z,15.07
2023-04-28T02:30:34.819Z,15.06
2023-04-28T02:33:01.987Z,15.05
2023-04-28T02:35:28.967Z,15.05
2023-04-28T02:37:56.043Z,15.04
2023-04-28T02:40:23.010Z,15.03
2023-04-28T02:42:50.161Z,15.02
2023-04-28T02:45:17.078Z,15.02
2023-04-28T02:47:44.198Z,15.01
2023-04-28T02:50:11.564Z,15.00
2023-04-28T02:52:38.874Z,14.99
2023-04-28T02:55:06.946Z,14.98
2023-04-28T02:57:34.181Z,14.98
2023-04-28T03:00:01.647Z,14.97
2023-04-28T03:02:35.358Z,14.95
2023-04-28T03:05:02.682Z,14.95
2023-04-28T03:07:29.848Z,14.94
2023-04-28T03:09:56.864Z,14.93
2023-04-28T03:12:23.966Z,14.93
2023-04-28T03:14:50.941Z,14.92
2023-04-28T03:17:18.031Z,14.90
2023-04-28T03:19:45.242Z,14.90
2023-04-28T03:22:12.351Z,14.89
2023-04-28T03:24:39.489Z,14.88
2023-04-28T03:27:06.501Z,14.88
2023-04-28T03:29:33.687Z,14.88
2023-04-28T03:32:01.337Z,14.87
2023-04-28T03:34:28.432Z,14.86
2023-04-28T03:36:55.632Z,14.86
2023-04-28T03:39:27.869Z,14.84
2023-04-28T03:41:54.868Z,14.82
2023-04-28T03:44:36.682Z,14.82
2023-04-28T03:47:04.484Z,14.81
2023-04-28T03:49:31.590Z,14.81
2023-04-28T03:51:59.042Z,14.80
2023-04-28T03:54:26.723Z,14.80
2023-04-28T03:56:54.180Z,14.79
2023-04-28T03:59:21.379Z,14.78
2023-04-28T04:01:49.655Z,14.78
2023-04-28T04:04:17.759Z,14.77
2023-04-28T04:06:46.098Z,14.78
2023-04-28T04:09:13.797Z,14.76
2023-04-28T04:11:41.102Z,14.75
2023-04-28T04:14:08.216Z,14.76
2023-04-28T04:16:36.965Z,14.73
2023-04-28T04:19:06.184Z,14.75
2023-04-28T04:21:41.265Z,14.75
2023-04-28T04:24:08.429Z,14.74
2023-04-28T04:26:35.465Z,14.74
2023-04-28T04:29:07.116Z,14.73
2023-04-28T04:31:34.113Z,14.73
2023-04-28T04:34:01.987Z,14.71
2023-04-28T04:36:29.051Z,14.71
2023-04-28T04:38:56.334Z,14.71
2023-04-28T04:41:23.645Z,14.71
2023-04-28T04:43:58.349Z,14.70
2023-04-28T04:46:30.828Z,14.70
2023-04-28T04:48:58.240Z,14.70
2023-04-28T04:51:26.020Z,14.70
2023-04-28T04:53:53.083Z,14.70
2023-04-28T04:56:20.496Z,14.70
2023-04-28T04:58:47.943Z,14.69
2023-04-28T05:01:50.834Z,14.68
2023-04-28T05:04:18.167Z,14.68
2023-04-28T05:06:45.437Z,14.69
2023-04-28T05:09:12.912Z,14.69
2023-04-28T05:11:40.056Z,14.70
2023-04-28T05:14:07.150Z,14.70
2023-04-28T05:16:34.621Z,14.71
2023-04-28T05:19:23.439Z,14.70
2023-04-28T05:21:52.739Z,14.72
2023-04-28T05:24:23.609Z,14.73
2023-04-28T05:26:52.837Z,14.73
2023-04-28T05:29:21.895Z,14.75
2023-04-28T05:31:49.165Z,14.73
2023-04-28T05:34:17.012Z,14.75
2023-04-28T05:36:45.154Z,14.76
2023-04-28T05:39:13.224Z,14.76
2023-04-28T05:41:41.768Z,14.77
2023-04-28T05:44:09.135Z,14.77
2023-04-28T05:46:37.257Z,14.76
2023-04-28T05:49:04.501Z,14.79
2023-04-28T05:51:35.830Z,14.77
2023-04-28T05:54:03.686Z,14.79
2023-04-28T05:56:33.732Z,14.78
2023-04-28T05:59:04.421Z,14.78
2023-04-28T06:01:32.424Z,14.79
2023-04-28T06:03:59.767Z,14.78
2023-04-28T06:06:27.840Z,14.71
2023-04-28T06:08:55.015Z,14.64
2023-04-28T06:11:22.720Z,14.57
2023-04-28T06:13:51.559Z,14.53
2023-04-28T06:16:19.195Z,14.48
2023-04-28T06:18:49.610Z,14.45
2023-04-28T06:21:17.763Z,14.41
2023-04-28T06:23:44.846Z,14.37
2023-04-28T06:26:12.333Z,14.33
2023-04-28T06:28:40.192Z,14.30
2023-04-28T06:31:09.037Z,14.29
2023-04-28T06:33:36.155Z,14.26
2023-04-28T06:36:04.038Z,14.22
2023-04-28T06:38:31.156Z,14.20
2023-04-28T06:40:58.057Z,14.15
2023-04-28T06:43:28.340Z,14.12
2023-04-28T06:46:09.070Z,14.12
2023-04-28T06:48:36.273Z,14.12
2023-04-28T06:51:03.856Z,14.10
2023-04-28T06:53:31.133Z,14.07
2023-04-28T06:55:59.326Z,14.05
2023-04-28T06:58:28.235Z,14.05
2023-04-28T07:00:55.371Z,14.07
2023-04-28T07:03:22.326Z,14.08
2023-04-28T07:05:49.426Z,14.08
2023-04-28T07:08:17.611Z,14.09
2023-04-28T07:10:44.663Z,14.08
2023-04-28T07:13:11.742Z,14.09
2023-04-28T07:15:39.765Z,14.11
2023-04-28T07:18:07.482Z,14.11
2023-04-28T07:20:34.568Z,14.09
2023-04-28T07:23:01.451Z,14.12
2023-04-28T07:25:28.611Z,14.13
2023-04-28T07:27:55.586Z,14.13
2023-04-28T07:30:27.967Z,14.13
2023-04-28T07:32:56.015Z,14.14
2023-04-28T07:35:23.725Z,14.13
2023-04-28T07:37:51.072Z,14.15
2023-04-28T07:40:19.338Z,14.15
2023-04-28T07:42:47.170Z,14.17
2023-04-28T07:45:16.180Z,14.17
2023-04-28T07:47:43.322Z,14.18
2023-04-28T07:50:12.113Z,14.18
2023-04-28T07:52:39.643Z,14.21
2023-04-28T07:55:07.134Z,14.21
2023-04-28T07:57:34.348Z,14.22
2023-04-28T08:00:01.342Z,14.24
2023-04-28T08:02:28.546Z,14.24
2023-04-28T08:04:55.902Z,14.25
2023-04-28T08:07:23.072Z,14.27
2023-04-28T08:09:52.117Z,14.28
2023-04-28T08:12:20.756Z,14.29
2023-04-28T08:14:48.612Z,14.28
2023-04-28T08:17:16.337Z,14.29
2023-04-28T08:19:46.204Z,14.30
2023-04-28T08:22:13.649Z,14.30
2023-04-28T08:24:40.837Z,14.32
2023-04-28T08:27:08.199Z,14.33
2023-04-28T08:29:35.420Z,14.34
2023-04-28T08:32:02.442Z,14.36
2023-04-28T08:34:29.556Z,14.39
2023-04-28T08:36:56.684Z,14.41
2023-04-28T08:39:23.891Z,14.45
2023-04-28T08:41:51.539Z,14.46
2023-04-28T08:44:19.501Z,14.48
2023-04-28T08:46:49.918Z,14.49
2023-04-28T08:49:19.180Z,14.50
2023-04-28T08:51:52.993Z,14.53
2023-04-28T08:54:26.668Z,14.56
2023-04-28T08:56:55.814Z,14.57
2023-04-28T08:59:22.806Z,14.61
2023-04-28T09:01:50.645Z,14.64
2023-04-28T09:04:20.838Z,14.65
2023-04-28T09:06:48.658Z,14.66
2023-04-28T09:09:26.136Z,14.68
2023-04-28T09:12:01.391Z,14.69
2023-04-28T09:14:34.817Z,14.71
2023-04-28T09:17:13.370Z,14.74
2023-04-28T09:19:43.307Z,14.77
2023-04-28T09:22:23.996Z,14.80
2023-04-28T09:24:53.976Z,14.83
2023-04-28T09:27:28.937Z,14.86
2023-04-28T09:29:56.141Z,14.88
2023-04-28T09:32:24.333Z,14.91
2023-04-28T09:34:54.544Z,14.95
2023-04-28T09:37:24.896Z,14.98
2023-04-28T09:39:54.234Z,15.02
2023-04-28T09:42:42.839Z,15.03
2023-04-28T09:45:14.312Z,15.07
2023-04-28T09:47:47.783Z,15.10
2023-04-28T09:50:18.152Z,15.12
2023-04-28T09:52:57.080Z,15.13
2023-04-28T09:55:25.275Z,15.18
2023-04-28T09:57:55.690Z,15.20
2023-04-28T10:00:23.458Z,15.25
2023-04-28T10:02:52.323Z,15.28
2023-04-28T10:05:21.826Z,15.31
2023-04-28T10:07:49.186Z,15.34
2023-04-28T10:10:16.944Z,15.36
2023-04-28T10:12:44.810Z,15.41
2023-04-28T10:15:13.490Z,15.45
2023-04-28T10:17:40.515Z,15.48
2023-04-28T10:20:09.247Z,15.51
2023-04-28T10:23:17.723Z,15.54
2023-04-28T10:25:50.233Z,15.57
2023-04-28T10:28:17.749Z,15.60
2023-04-28T10:31:15.418Z,15.64
2023-04-28T10:33:43.333Z,15.68
2023-04-28T10:36:10.962Z,15.72
2023-04-28T10:39:14.314Z,15.73
2023-04-28T10:41:41.766Z,15.77
2023-04-28T10:44:30.585Z,15.79
2023-04-28T10:47:04.636Z,15.82
2023-04-28T10:49:57.580Z,15.82
2023-04-28T10:52:34.743Z,15.84
2023-04-28T10:55:28.808Z,15.85
2023-04-28T10:58:15.851Z,15.86
2023-04-28T11:00:45.308Z,15.90
2023-04-28T11:03:46.689Z,15.90
2023-04-28T11:06:29.050Z,15.91
2023-04-28T11:09:32.355Z,15.89
2023-04-28T11:12:10.710Z,15.89
2023-04-28T11:14:40.730Z,15.90
2023-04-28T11:17:13.408Z,15.91
2023-04-28T11:19:45.753Z,15.92
2023-04-28T11:22:23.382Z,15.94
2023-04-28T11:25:00.802Z,15.93
2023-04-28T11:27:33.261Z,15.94
2023-04-28T11:30:01.617Z,15.95
2023-04-28T11:32:36.551Z,15.96
2023-04-28T11:35:04.659Z,15.97
2023-04-28T11:37:31.785Z,16.00
2023-04-28T11:39:58.882Z,16.02
2023-04-28T11:42:27.786Z,16.02
2023-04-28T11:44:56.343Z,16.04
2023-04-28T11:47:33.768Z,16.06
2023-04-28T11:50:02.166Z,16.07
2023-04-28T11:52:29.484Z,16.07
2023-04-28T11:55:00.294Z,16.09
2023-04-28T11:57:27.817Z,16.10
2023-04-28T12:00:12.173Z,16.10
2023-04-28T12:02:39.690Z,16.11
2023-04-28T12:05:07.887Z,16.10
2023-04-28T12:07:45.968Z,16.11
2023-04-28T12:10:17.615Z,16.12
2023-04-28T12:12:51.888Z,16.14
2023-04-28T12:15:22.216Z,16.14
2023-04-28T12:17:50.716Z,16.15
2023-04-28T12:20:38.391Z,16.14
2023-04-28T12:23:06.582Z,16.15
2023-04-28T12:25:35.385Z,16.15
2023-04-28T12:28:05.533Z,16.16
2023-04-28T12:30:35.018Z,16.17
2023-04-28T12:33:02.323Z,16.17
2023-04-28T12:35:30.248Z,16.19
2023-04-28T12:37:58.902Z,16.20
2023-04-28T12:40:26.384Z,16.20
2023-04-28T12:42:54.140Z,16.22
2023-04-28T12:45:21.161Z,16.22
2023-04-28T12:47:48.990Z,16.21
2023-04-28T12:50:16.245Z,16.23
2023-04-28T12:52:45.054Z,16.22
2023-04-28T12:55:12.251Z,16.22
2023-04-28T12:57:39.817Z,16.23
2023-04-28T13:00:08.790Z,16.24
2023-04-28T13:02:36.449Z,16.25
2023-04-28T13:05:03.831Z,16.24
2023-04-28T13:07:30.813Z,16.24
2023-04-28T13:09:58.360Z,16.24
2023-04-28T13:12:26.393Z,16.22
2023-04-28T13:14:53.370Z,16.22
2023-04-28T13:17:20.531Z,16.23
2023-04-28T13:19:47.875Z,16.24
2023-04-28T13:22:15.746Z,16.21
2023-04-28T13:24:42.915Z,16.22
2023-04-28T13:27:10.349Z,16.22
2023-04-28T13:29:37.858Z,16.20
2023-04-28T13:32:06.138Z,16.19
2023-04-28T13:34:33.551Z,16.17
2023-04-28T13:37:00.556Z,16.17
2023-04-28T13:39:27.475Z,16.16
2023-04-28T13:41:54.419Z,16.16
2023-04-28T13:44:21.625Z,16.15
2023-04-28T13:46:48.966Z,16.14
2023-04-28T13:49:16.062Z,16.15
2023-04-28T13:51:43.092Z,16.15
2023-04-28T13:54:11.437Z,16.14
2023-04-28T13:56:38.724Z,16.14
2023-04-28T13:59:05.697Z,16.13
2023-04-28T14:01:32.700Z,16.14
2023-04-28T14:03:59.804Z,16.13
2023-04-28T14:06:27.962Z,16.12
2023-04-28T14:08:55.097Z,16.12
2023-04-28T14:11:22.694Z,16.11
2023-04-28T14:13:49.940Z,16.12
2023-04-28T14:16:17.665Z,16.12
2023-04-28T14:18:44.684Z,16.11
2023-04-28T14:21:11.997Z,16.13
2023-04-28T14:23:39.497Z,16.11
2023-04-28T14:26:07.009Z,16.13
2023-04-28T14:28:34.250Z,16.13
2023-04-28T14:31:06.973Z,16.10
2023-04-28T14:33:34.245Z,16.12
2023-04-28T14:36:05.131Z,16.13
2023-04-28T14:38:32.383Z,16.11
2023-04-28T14:40:59.500Z,16.12
2023-04-28T14:43:26.736Z,16.11
2023-04-28T14:45:53.776Z,16.10
2023-04-28T14:48:20.988Z,16.10
2023-04-28T14:50:48.652Z,16.08
2023-04-28T14:53:15.691Z,16.08
2023-04-28T14:55:54.595Z,16.06
2023-04-28T14:58:28.158Z,16.03
2023-04-28T15:00:59.273Z,16.02
2023-04-28T15:03:30.215Z,15.99
2023-04-28T15:05:57.326Z,16.00
2023-04-28T15:08:24.437Z,15.98
2023-04-28T15:10:51.527Z,15.98
2023-04-28T15:13:18.536Z,15.96
2023-04-28T15:15:45.972Z,15.95
2023-04-28T15:18:12.933Z,15.94
2023-04-28T15:20:39.938Z,15.93
2023-04-28T15:23:06.933Z,15.95
2023-04-28T15:25:33.851Z,15.94
2023-04-28T15:28:00.908Z,15.94
2023-04-28T15:30:27.815Z,15.95
2023-04-28T15:32:54.790Z,15.93
2023-04-28T15:35:22.150Z,15.93
2023-04-28T15:37:52.137Z,15.92
2023-04-28T15:40:19.993Z,15.94
2023-04-28T15:42:52.896Z,15.92
2023-04-28T15:45:22.303Z,15.90
2023-04-28T15:47:50.705Z,15.92
2023-04-28T15:50:19.773Z,15.94
2023-04-28T15:52:49.562Z,15.94
2023-04-28T15:55:19.156Z,15.95
2023-04-28T15:57:47.464Z,15.95
2023-04-28T16:00:15.612Z,15.96
2023-04-28T16:02:43.684Z,15.97
2023-04-28T16:05:11.646Z,15.98
2023-04-28T16:07:41.037Z,15.97
2023-04-28T16:10:12.327Z,15.97
2023-04-28T16:12:40.520Z,15.98
2023-04-28T16:15:10.016Z,15.99
2023-04-28T16:17:38.583Z,15.98
2023-04-28T16:20:08.227Z,15.99
2023-04-28T16:22:36.417Z,15.99
2023-04-28T16:25:04.035Z,15.98
2023-04-28T16:27:31.858Z,15.98
2023-04-28T16:29:59.593Z,15.99
2023-04-28T16:32:27.005Z,16.00
2023-04-28T16:34:56.972Z,15.99
2023-04-28T16:37:23.853Z,15.99
2023-04-28T16:39:51.353Z,16.02
2023-04-28T16:42:20.876Z,16.00
2023-04-28T16:44:47.813Z,16.00
2023-04-28T16:47:15.422Z,16.00
2023-04-28T16:49:42.425Z,16.02
2023-04-28T16:52:09.574Z,15.97
2023-04-28T16:54:36.736Z,16.03
2023-04-28T16:57:04.061Z,16.02
2023-04-28T16:59:31.133Z,16.02
2023-04-28T17:01:59.057Z,16.02
2023-04-28T17:04:27.189Z,16.02
2023-04-28T17:06:54.547Z,16.02
2023-04-28T17:09:22.421Z,16.02
2023-04-28T17:11:50.065Z,16.02
2023-04-28T17:14:17.755Z,16.01
2023-04-28T17:16:44.889Z,16.02
2023-04-28T17:19:12.368Z,16.01
2023-04-28T17:21:39.482Z,16.02
2023-04-28T17:24:06.713Z,16.03
2023-04-28T17:26:33.673Z,16.03
2023-04-28T17:29:01.158Z,16.02
2023-04-28T17:31:29.363Z,16.00
2023-04-28T17:33:59.492Z,16.00
2023-04-28T17:36:27.062Z,16.02
2023-04-28T17:38:57.035Z,16.02
2023-04-28T17:41:24.166Z,16.01
2023-04-28T17:44:11.340Z,16.00
2023-04-28T17:46:38.558Z,15.99
2023-04-28T17:49:05.698Z,15.99
2023-04-28T17:51:32.844Z,16.01
2023-04-28T17:53:59.844Z,16.00
2023-04-28T17:56:27.591Z,16.03
2023-04-28T17:58:55.093Z,16.03
2023-04-28T18:01:22.458Z,16.04
2023-04-28T18:03:49.502Z,16.04
2023-04-28T18:06:16.527Z,16.06
2023-04-28T18:08:43.598Z,16.05
2023-04-28T18:11:11.487Z,16.06
2023-04-28T18:13:38.379Z,16.06
2023-04-28T18:16:05.533Z,16.07
2023-04-28T18:18:35.405Z,16.07
2023-04-28T18:21:02.812Z,16.07
2023-04-28T18:23:30.615Z,16.07
2023-04-28T18:25:57.657Z,16.07
2023-04-28T18:28:24.825Z,16.08
2023-04-28T18:30:51.779Z,16.08
2023-04-28T18:33:20.661Z,16.07
2023-04-28T18:35:58.596Z,16.08
2023-04-28T18:38:26.110Z,16.10
2023-04-28T18:40:53.598Z,16.09
2023-04-28T18:43:21.641Z,16.10
2023-04-28T18:45:48.670Z,16.09
2023-04-28T18:48:15.703Z,16.10
2023-04-28T18:50:42.959Z,16.11
2023-04-28T18:53:11.063Z,16.12
2023-04-28T18:55:38.840Z,16.10
2023-04-28T18:58:06.068Z,16.10
2023-04-28T19:00:37.052Z,16.11
2023-04-28T19:03:04.587Z,16.10
2023-04-28T19:05:31.753Z,16.11
2023-04-28T19:07:58.821Z,16.11
2023-04-28T19:10:25.753Z,16.11
2023-04-28T19:12:52.833Z,16.11
2023-04-28T19:15:19.981Z,16.12
2023-04-28T19:17:47.012Z,16.11
2023-04-28T19:20:14.329Z,16.10
2023-04-28T19:22:41.574Z,16.11
2023-04-28T19:25:09.295Z,16.11
2023-04-28T19:27:41.235Z,16.11
2023-04-28T19:30:11.551Z,16.11
2023-04-28T19:32:40.013Z,16.10
2023-04-28T19:35:08.110Z,16.09
2023-04-28T19:37:35.725Z,16.08
2023-04-28T19:40:07.205Z,16.10
2023-04-28T19:42:37.226Z,16.09
2023-04-28T19:45:05.231Z,16.10
2023-04-28T19:47:35.370Z,16.09
2023-04-28T19:50:02.560Z,16.09
2023-04-28T19:52:29.901Z,16.08
2023-04-28T19:54:57.257Z,16.09
2023-04-28T19:57:24.221Z,16.06
2023-04-28T19:59:51.472Z,16.08
2023-04-28T20:02:19.161Z,16.07
2023-04-28T20:04:47.524Z,16.08
2023-04-28T20:07:14.799Z,16.09
2023-04-28T20:09:42.861Z,16.07
2023-04-28T20:12:10.501Z,16.08
2023-04-28T20:14:37.528Z,16.07
2023-04-28T20:17:07.356Z,16.09
2023-04-28T20:19:35.125Z,16.08
2023-04-28T20:22:08.447Z,16.07
2023-04-28T20:24:36.616Z,16.07
2023-04-28T20:27:04.135Z,16.07
2023-04-28T20:29:34.559Z,16.07
2023-04-28T20:32:02.607Z,16.06
2023-04-28T20:34:32.701Z,16.06
2023-04-28T20:37:03.562Z,16.06
2023-04-28T20:39:30.712Z,16.05
2023-04-28T20:41:59.382Z,16.04
2023-04-28T20:44:26.657Z,16.06
2023-04-28T20:46:53.764Z,16.05
2023-04-28T20:49:20.787Z,16.05
2023-04-28T20:51:47.874Z,16.05
2023-04-28T20:54:15.185Z,16.04
2023-04-28T20:56:42.890Z,16.06
2023-04-28T20:59:10.042Z,16.05
2023-04-28T21:01:37.027Z,16.03
2023-04-28T21:04:04.236Z,16.04
2023-04-28T21:06:31.287Z,16.03
2023-04-28T21:08:58.258Z,16.04
2023-04-28T21:11:25.655Z,16.02
2023-04-28T21:13:52.824Z,16.03
2023-04-28T21:16:21.705Z,16.02
2023-04-28T21:18:49.805Z,16.03
2023-04-28T21:21:17.199Z,16.03
2023-04-28T21:23:44.290Z,16.00
2023-04-28T21:26:11.580Z,16.03
2023-04-28T21:28:39.880Z,16.03
2023-04-28T21:31:07.156Z,16.01
2023-04-28T21:33:34.261Z,16.01
2023-04-28T21:36:07.315Z,16.01
2023-04-28T21:38:35.275Z,16.02
2023-04-28T21:41:02.580Z,16.00
2023-04-28T21:43:29.583Z,15.99
2023-04-28T21:45:56.686Z,15.99
2023-04-28T21:48:23.726Z,16.00
2023-04-28T21:50:50.717Z,15.99
2023-04-28T21:53:17.747Z,15.99
2023-04-28T21:55:44.932Z,15.99
2023-04-28T21:58:12.317Z,16.00
2023-04-28T22:00:44.276Z,15.99
2023-04-28T22:03:12.231Z,15.99
2023-04-28T22:05:41.200Z,15.99
2023-04-28T22:08:08.392Z,15.99
2023-04-28T22:10:36.396Z,15.98
2023-04-28T22:13:03.986Z,15.97
2023-04-28T22:15:30.956Z,15.97
2023-04-28T22:17:58.242Z,15.97
2023-04-28T22:20:25.271Z,15.97
2023-04-28T22:22:52.471Z,15.98
2023-04-28T22:25:19.741Z,15.98
2023-04-28T22:27:46.867Z,15.97
2023-04-28T22:30:14.222Z,15.97
2023-04-28T22:32:44.623Z,15.97
2023-04-28T22:35:16.449Z,15.96
2023-04-28T22:37:43.775Z,15.96
2023-04-28T22:40:11.189Z,15.95
2023-04-28T22:42:40.293Z,15.96
2023-04-28T22:45:09.806Z,15.96
2023-04-28T22:47:38.782Z,15.95
2023-04-28T22:50:08.328Z,15.95
2023-04-28T22:52:35.832Z,15.95
2023-04-28T22:55:03.468Z,15.95
2023-04-28T22:57:30.599Z,15.95
2023-04-28T22:59:57.470Z,15.94
2023-04-28T23:02:24.887Z,15.94
2023-04-28T23:04:52.177Z,15.93
2023-04-28T23:07:19.188Z,15.94
2023-04-28T23:09:46.211Z,15.94
2023-04-28T23:12:13.274Z,15.93
2023-04-28T23:14:40.256Z,15.93
2023-04-28T23:17:07.247Z,15.93
2023-04-28T23:19:39.246Z,15.94
2023-04-28T23:22:08.023Z,15.92
2023-04-28T23:24:37.087Z,15.93
2023-04-28T23:27:04.943Z,15.93
2023-04-28T23:29:32.572Z,15.93
2023-04-28T23:31:59.672Z,15.92
2023-04-28T23:34:27.165Z,15.93
2023-04-28T23:36:54.163Z,15.93
2023-04-28T23:39:21.224Z,15.92
2023-04-28T23:41:48.244Z,15.93
2023-04-28T23:44:15.468Z,15.92
2023-04-28T23:46:42.690Z,15.91
2023-04-28T23:49:10.228Z,15.92
2023-04-28T23:51:37.231Z,15.93
2023-04-28T23:54:04.206Z,15.93
2023-04-28T23:56:31.557Z,15.92
2023-04-28T23:58:58.500Z,15.92
